sensor_id;sensor_type;location;lat;lon;timestamp;P1;P2;P0
54553;PMS5003;40450;55.848;-3.572;2023-11-22T00:00:47;1;1;
54553;PMS5003;40450;55.848;-3.572;2023-11-22T00:03:12;3;2;
54553;PMS5003;40450;55.848;-3.572;2023-11-22T00:05:38;2;2;
54553;PMS5003;40450;55.848;-3.572;2023-11-22T00:08:03;3;2;
54553;PMS5003;40450;55.848;-3.572;2023-11-22T00:10:28;2;2;
54553;PMS5003;40450;55.848;-3.572;2023-11-22T00:12:53;3;2;
54553;PMS5003;40450;55.848;-3.572;2023-11-22T00:15:18;4;3;
54553;PMS5003;40450;55.848;-3.572;2023-11-22T00:17:43;3;3;
54553;PMS5003;40450;55.848;-3.572;2023-11-22T00:20:09;6;4;
54553;PMS5003;40450;55.848;-3.572;2023-11-22T00:22:34;4;4;
54553;PMS5003;40450;55.848;-3.572;2023-11-22T00:24:59;4;4;
54553;PMS5003;40450;55.848;-3.572;2023-11-22T00:27:24;5;4;
54553;PMS5003;40450;55.848;-3.572;2023-11-22T00:29:50;5;3;
54553;PMS5003;40450;55.848;-3.572;2023-11-22T00:32:15;3;3;
54553;PMS5003;40450;55.848;-3.572;2023-11-22T00:34:40;6;5;
54553;PMS5003;40450;55.848;-3.572;2023-11-22T00:37:05;6;6;
54553;PMS5003;40450;55.848;-3.572;2023-11-22T00:39:30;5;4;
54553;PMS5003;40450;55.848;-3.572;2023-11-22T00:41:56;5;5;
54553;PMS5003;40450;55.848;-3.572;2023-11-22T00:44:21;6;4;
54553;PMS5003;40450;55.848;-3.572;2023-11-22T00:46:46;6;5;
54553;PMS5003;40450;55.848;-3.572;2023-11-22T00:49:12;5;5;
54553;PMS5003;40450;55.848;-3.572;2023-11-22T00:51:37;5;5;
54553;PMS5003;40450;55.848;-3.572;2023-11-22T00:54:02;5;5;
54553;PMS5003;40450;55.848;-3.572;2023-11-22T00:56:27;8;6;
54553;PMS5003;40450;55.848;-3.572;2023-11-22T00:58:53;7;7;
54553;PMS5003;40450;55.848;-3.572;2023-11-22T01:01:18;6;3;
54553;PMS5003;40450;55.848;-3.572;2023-11-22T01:03:43;7;6;
54553;PMS5003;40450;55.848;-3.572;2023-11-22T01:06:08;5;5;
54553;PMS5003;40450;55.848;-3.572;2023-11-22T01:08:34;8;7;
54553;PMS5003;40450;55.848;-3.572;2023-11-22T01:10:59;6;6;
54553;PMS5003;40450;55.848;-3.572;2023-11-22T01:13:24;6;6;
54553;PMS5003;40450;55.848;-3.572;2023-11-22T01:15:49;6;5;
54553;PMS5003;40450;55.848;-3.572;2023-11-22T01:18:15;6;4;
54553;PMS5003;40450;55.848;-3.572;2023-11-22T01:20:40;10;7;
54553;PMS5003;40450;55.848;-3.572;2023-11-22T01:23:05;6;6;
54553;PMS5003;40450;55.848;-3.572;2023-11-22T01:25:35;9;9;
54553;PMS5003;40450;55.848;-3.572;2023-11-22T01:27:56;5;5;
54553;PMS5003;40450;55.848;-3.572;2023-11-22T01:30:22;11;8;
54553;PMS5003;40450;55.848;-3.572;2023-11-22T01:32:48;8;7;
54553;PMS5003;40450;55.848;-3.572;2023-11-22T01:35:13;14;13;
54553;PMS5003;40450;55.848;-3.572;2023-11-22T01:37:39;14;11;
54553;PMS5003;40450;55.848;-3.572;2023-11-22T01:40:05;10;7;
54553;PMS5003;40450;55.848;-3.572;2023-11-22T01:42:30;7;7;
54553;PMS5003;40450;55.848;-3.572;2023-11-22T01:44:55;9;9;
54553;PMS5003;40450;55.848;-3.572;2023-11-22T01:47:21;9;7;
54553;PMS5003;40450;55.848;-3.572;2023-11-22T01:49:46;8;7;
54553;PMS5003;40450;55.848;-3.572;2023-11-22T01:52:11;8;7;
54553;PMS5003;40450;55.848;-3.572;2023-11-22T01:54:36;4;4;
54553;PMS5003;40450;55.848;-3.572;2023-11-22T01:57:02;6;6;
54553;PMS5003;40450;55.848;-3.572;2023-11-22T01:59:27;4;4;
54553;PMS5003;40450;55.848;-3.572;2023-11-22T02:01:52;7;6;
54553;PMS5003;40450;55.848;-3.572;2023-11-22T02:04:18;7;5;
54553;PMS5003;40450;55.848;-3.572;2023-11-22T02:06:43;3;3;
54553;PMS5003;40450;55.848;-3.572;2023-11-22T02:09:08;7;5;
54553;PMS5003;40450;55.848;-3.572;2023-11-22T02:11:33;3;3;
54553;PMS5003;40450;55.848;-3.572;2023-11-22T02:13:58;4;2;
54553;PMS5003;40450;55.848;-3.572;2023-11-22T02:16:23;2;2;
54553;PMS5003;40450;55.848;-3.572;2023-11-22T02:18:49;2;2;
54553;PMS5003;40450;55.848;-3.572;2023-11-22T02:21:16;4;4;
54553;PMS5003;40450;55.848;-3.572;2023-11-22T02:23:39;4;4;
54553;PMS5003;40450;55.848;-3.572;2023-11-22T02:26:04;6;6;
54553;PMS5003;40450;55.848;-3.572;2023-11-22T02:28:30;6;6;
54553;PMS5003;40450;55.848;-3.572;2023-11-22T02:30:55;6;4;
54553;PMS5003;40450;55.848;-3.572;2023-11-22T02:33:20;8;6;
54553;PMS5003;40450;55.848;-3.572;2023-11-22T02:35:45;6;6;
54553;PMS5003;40450;55.848;-3.572;2023-11-22T02:38:11;5;5;
54553;PMS5003;40450;55.848;-3.572;2023-11-22T02:40:36;5;5;
54553;PMS5003;40450;55.848;-3.572;2023-11-22T02:43:01;5;5;
54553;PMS5003;40450;55.848;-3.572;2023-11-22T02:45:27;7;5;
54553;PMS5003;40450;55.848;-3.572;2023-11-22T02:47:52;7;7;
54553;PMS5003;40450;55.848;-3.572;2023-11-22T02:50:17;8;7;
54553;PMS5003;40450;55.848;-3.572;2023-11-22T02:52:42;6;6;
54553;PMS5003;40450;55.848;-3.572;2023-11-22T02:55:07;9;6;
54553;PMS5003;40450;55.848;-3.572;2023-11-22T02:57:32;5;5;
54553;PMS5003;40450;55.848;-3.572;2023-11-22T02:59:58;5;5;
54553;PMS5003;40450;55.848;-3.572;2023-11-22T03:02:23;5;5;
54553;PMS5003;40450;55.848;-3.572;2023-11-22T03:04:48;5;5;
54553;PMS5003;40450;55.848;-3.572;2023-11-22T03:07:14;7;6;
54553;PMS5003;40450;55.848;-3.572;2023-11-22T03:09:39;6;6;
54553;PMS5003;40450;55.848;-3.572;2023-11-22T03:12:04;5;5;
54553;PMS5003;40450;55.848;-3.572;2023-11-22T03:14:29;8;5;
54553;PMS5003;40450;55.848;-3.572;2023-11-22T03:16:55;6;4;
54553;PMS5003;40450;55.848;-3.572;2023-11-22T03:19:20;4;4;
54553;PMS5003;40450;55.848;-3.572;2023-11-22T03:21:45;3;3;
54553;PMS5003;40450;55.848;-3.572;2023-11-22T03:24:11;4;4;
54553;PMS5003;40450;55.848;-3.572;2023-11-22T03:26:36;3;3;
54553;PMS5003;40450;55.848;-3.572;2023-11-22T03:29:01;6;6;
54553;PMS5003;40450;55.848;-3.572;2023-11-22T03:31:26;4;4;
54553;PMS5003;40450;55.848;-3.572;2023-11-22T03:33:51;6;5;
54553;PMS5003;40450;55.848;-3.572;2023-11-22T03:36:17;6;6;
54553;PMS5003;40450;55.848;-3.572;2023-11-22T03:38:42;3;3;
54553;PMS5003;40450;55.848;-3.572;2023-11-22T03:41:07;4;4;
54553;PMS5003;40450;55.848;-3.572;2023-11-22T03:43:33;4;4;
54553;PMS5003;40450;55.848;-3.572;2023-11-22T03:45:58;5;5;
54553;PMS5003;40450;55.848;-3.572;2023-11-22T03:48:24;5;4;
54553;PMS5003;40450;55.848;-3.572;2023-11-22T03:50:49;3;3;
54553;PMS5003;40450;55.848;-3.572;2023-11-22T03:53:14;3;3;
54553;PMS5003;40450;55.848;-3.572;2023-11-22T03:55:39;3;3;
54553;PMS5003;40450;55.848;-3.572;2023-11-22T03:58:04;4;2;
54553;PMS5003;40450;55.848;-3.572;2023-11-22T04:00:30;7;6;
54553;PMS5003;40450;55.848;-3.572;2023-11-22T04:02:55;8;5;
54553;PMS5003;40450;55.848;-3.572;2023-11-22T04:05:20;6;5;
54553;PMS5003;40450;55.848;-3.572;2023-11-22T04:07:45;3;2;
54553;PMS5003;40450;55.848;-3.572;2023-11-22T04:10:11;3;3;
54553;PMS5003;40450;55.848;-3.572;2023-11-22T04:12:36;4;3;
54553;PMS5003;40450;55.848;-3.572;2023-11-22T04:15:01;3;3;
54553;PMS5003;40450;55.848;-3.572;2023-11-22T04:17:26;6;6;
54553;PMS5003;40450;55.848;-3.572;2023-11-22T04:19:51;2;2;
54553;PMS5003;40450;55.848;-3.572;2023-11-22T04:22:16;3;3;
54553;PMS5003;40450;55.848;-3.572;2023-11-22T04:24:42;2;2;
54553;PMS5003;40450;55.848;-3.572;2023-11-22T04:27:09;3;2;
54553;PMS5003;40450;55.848;-3.572;2023-11-22T04:29:32;5;2;
54553;PMS5003;40450;55.848;-3.572;2023-11-22T04:31:57;4;2;
54553;PMS5003;40450;55.848;-3.572;2023-11-22T04:34:22;3;3;
54553;PMS5003;40450;55.848;-3.572;2023-11-22T04:36:48;1;1;
54553;PMS5003;40450;55.848;-3.572;2023-11-22T04:39:13;1;1;
54553;PMS5003;40450;55.848;-3.572;2023-11-22T04:41:38;1;1;
54553;PMS5003;40450;55.848;-3.572;2023-11-22T04:44:04;2;2;
54553;PMS5003;40450;55.848;-3.572;2023-11-22T04:46:30;0;0;
54553;PMS5003;40450;55.848;-3.572;2023-11-22T04:48:55;1;1;
54553;PMS5003;40450;55.848;-3.572;2023-11-22T04:51:20;1;0;
54553;PMS5003;40450;55.848;-3.572;2023-11-22T04:53:45;0;0;
54553;PMS5003;40450;55.848;-3.572;2023-11-22T04:56:10;0;0;
54553;PMS5003;40450;55.848;-3.572;2023-11-22T04:58:35;1;1;
54553;PMS5003;40450;55.848;-3.572;2023-11-22T05:01:01;1;1;
54553;PMS5003;40450;55.848;-3.572;2023-11-22T05:03:26;1;1;
54553;PMS5003;40450;55.848;-3.572;2023-11-22T05:05:51;0;0;
54553;PMS5003;40450;55.848;-3.572;2023-11-22T05:08:16;0;0;
54553;PMS5003;40450;55.848;-3.572;2023-11-22T05:10:41;0;0;
54553;PMS5003;40450;55.848;-3.572;2023-11-22T05:13:06;0;0;
54553;PMS5003;40450;55.848;-3.572;2023-11-22T05:15:32;0;0;
54553;PMS5003;40450;55.848;-3.572;2023-11-22T05:17:57;0;0;
54553;PMS5003;40450;55.848;-3.572;2023-11-22T05:20:22;1;0;
54553;PMS5003;40450;55.848;-3.572;2023-11-22T05:22:47;0;0;
54553;PMS5003;40450;55.848;-3.572;2023-11-22T05:25:13;0;0;
54553;PMS5003;40450;55.848;-3.572;2023-11-22T05:27:37;0;0;
54553;PMS5003;40450;55.848;-3.572;2023-11-22T05:30:03;0;0;
54553;PMS5003;40450;55.848;-3.572;2023-11-22T05:32:28;0;0;
54553;PMS5003;40450;55.848;-3.572;2023-11-22T05:34:53;0;0;
54553;PMS5003;40450;55.848;-3.572;2023-11-22T05:37:18;0;0;
54553;PMS5003;40450;55.848;-3.572;2023-11-22T05:39:43;0;0;
54553;PMS5003;40450;55.848;-3.572;2023-11-22T05:42:08;0;0;
54553;PMS5003;40450;55.848;-3.572;2023-11-22T05:44:34;0;0;
54553;PMS5003;40450;55.848;-3.572;2023-11-22T05:46:59;0;0;
54553;PMS5003;40450;55.848;-3.572;2023-11-22T05:49:24;1;0;
54553;PMS5003;40450;55.848;-3.572;2023-11-22T05:51:49;0;0;
54553;PMS5003;40450;55.848;-3.572;2023-11-22T05:54:14;0;0;
54553;PMS5003;40450;55.848;-3.572;2023-11-22T05:56:40;0;0;
54553;PMS5003;40450;55.848;-3.572;2023-11-22T05:59:05;0;0;
54553;PMS5003;40450;55.848;-3.572;2023-11-22T06:01:30;0;0;
54553;PMS5003;40450;55.848;-3.572;2023-11-22T06:03:55;0;0;
54553;PMS5003;40450;55.848;-3.572;2023-11-22T06:06:20;0;0;
54553;PMS5003;40450;55.848;-3.572;2023-11-22T06:08:47;0;0;
54553;PMS5003;40450;55.848;-3.572;2023-11-22T06:11:11;0;0;
54553;PMS5003;40450;55.848;-3.572;2023-11-22T06:13:36;0;0;
54553;PMS5003;40450;55.848;-3.572;2023-11-22T06:16:01;0;0;
54553;PMS5003;40450;55.848;-3.572;2023-11-22T06:18:26;0;0;
54553;PMS5003;40450;55.848;-3.572;2023-11-22T06:20:51;0;0;
54553;PMS5003;40450;55.848;-3.572;2023-11-22T06:23:17;0;0;
54553;PMS5003;40450;55.848;-3.572;2023-11-22T06:25:42;0;0;
54553;PMS5003;40450;55.848;-3.572;2023-11-22T06:28:07;0;0;
54553;PMS5003;40450;55.848;-3.572;2023-11-22T06:30:32;0;0;
54553;PMS5003;40450;55.848;-3.572;2023-11-22T06:32:57;0;0;
54553;PMS5003;40450;55.848;-3.572;2023-11-22T06:35:22;0;0;
54553;PMS5003;40450;55.848;-3.572;2023-11-22T06:37:48;0;0;
54553;PMS5003;40450;55.848;-3.572;2023-11-22T06:40:14;0;0;
54553;PMS5003;40450;55.848;-3.572;2023-11-22T06:42:38;0;0;
54553;PMS5003;40450;55.848;-3.572;2023-11-22T06:45:04;0;0;
54553;PMS5003;40450;55.848;-3.572;2023-11-22T06:47:28;0;0;
54553;PMS5003;40450;55.848;-3.572;2023-11-22T06:49:54;0;0;
54553;PMS5003;40450;55.848;-3.572;2023-11-22T06:52:19;0;0;
54553;PMS5003;40450;55.848;-3.572;2023-11-22T06:54:44;0;0;
54553;PMS5003;40450;55.848;-3.572;2023-11-22T06:57:09;0;0;
54553;PMS5003;40450;55.848;-3.572;2023-11-22T06:59:34;0;0;
54553;PMS5003;40450;55.848;-3.572;2023-11-22T07:01:59;0;0;
54553;PMS5003;40450;55.848;-3.572;2023-11-22T07:04:25;0;0;
54553;PMS5003;40450;55.848;-3.572;2023-11-22T07:06:50;0;0;
54553;PMS5003;40450;55.848;-3.572;2023-11-22T07:09:20;0;0;
54553;PMS5003;40450;55.848;-3.572;2023-11-22T07:11:40;0;0;
54553;PMS5003;40450;55.848;-3.572;2023-11-22T07:14:05;0;0;
54553;PMS5003;40450;55.848;-3.572;2023-11-22T07:16:36;0;0;
54553;PMS5003;40450;55.848;-3.572;2023-11-22T07:18:56;0;0;
54553;PMS5003;40450;55.848;-3.572;2023-11-22T07:21:21;0;0;
54553;PMS5003;40450;55.848;-3.572;2023-11-22T07:23:46;0;0;
54553;PMS5003;40450;55.848;-3.572;2023-11-22T07:26:11;0;0;
54553;PMS5003;40450;55.848;-3.572;2023-11-22T07:28:36;0;0;
54553;PMS5003;40450;55.848;-3.572;2023-11-22T07:31:06;0;0;
54553;PMS5003;40450;55.848;-3.572;2023-11-22T07:33:27;0;0;
54553;PMS5003;40450;55.848;-3.572;2023-11-22T07:35:57;0;0;
54553;PMS5003;40450;55.848;-3.572;2023-11-22T07:38:22;0;0;
54553;PMS5003;40450;55.848;-3.572;2023-11-22T07:40:44;0;0;
54553;PMS5003;40450;55.848;-3.572;2023-11-22T07:43:08;0;0;
54553;PMS5003;40450;55.848;-3.572;2023-11-22T07:45:33;0;0;
54553;PMS5003;40450;55.848;-3.572;2023-11-22T07:47:58;0;0;
54553;PMS5003;40450;55.848;-3.572;2023-11-22T07:50:23;0;0;
54553;PMS5003;40450;55.848;-3.572;2023-11-22T07:52:48;0;0;
54553;PMS5003;40450;55.848;-3.572;2023-11-22T07:55:14;0;0;
54553;PMS5003;40450;55.848;-3.572;2023-11-22T07:57:39;0;0;
54553;PMS5003;40450;55.848;-3.572;2023-11-22T08:00:04;0;0;
54553;PMS5003;40450;55.848;-3.572;2023-11-22T08:02:29;0;0;
54553;PMS5003;40450;55.848;-3.572;2023-11-22T08:04:54;1;0;
54553;PMS5003;40450;55.848;-3.572;2023-11-22T08:07:19;0;0;
54553;PMS5003;40450;55.848;-3.572;2023-11-22T08:09:45;0;0;
54553;PMS5003;40450;55.848;-3.572;2023-11-22T08:12:10;0;0;
54553;PMS5003;40450;55.848;-3.572;2023-11-22T08:14:35;0;0;
54553;PMS5003;40450;55.848;-3.572;2023-11-22T08:17:00;0;0;
54553;PMS5003;40450;55.848;-3.572;2023-11-22T08:19:25;0;0;
54553;PMS5003;40450;55.848;-3.572;2023-11-22T08:21:50;0;0;
54553;PMS5003;40450;55.848;-3.572;2023-11-22T08:24:16;0;0;
54553;PMS5003;40450;55.848;-3.572;2023-11-22T08:26:41;0;0;
54553;PMS5003;40450;55.848;-3.572;2023-11-22T08:29:08;0;0;
54553;PMS5003;40450;55.848;-3.572;2023-11-22T08:31:31;0;0;
54553;PMS5003;40450;55.848;-3.572;2023-11-22T08:33:56;0;0;
54553;PMS5003;40450;55.848;-3.572;2023-11-22T08:36:22;0;0;
54553;PMS5003;40450;55.848;-3.572;2023-11-22T08:38:47;0;0;
54553;PMS5003;40450;55.848;-3.572;2023-11-22T08:41:12;0;0;
54553;PMS5003;40450;55.848;-3.572;2023-11-22T08:43:37;0;0;
54553;PMS5003;40450;55.848;-3.572;2023-11-22T08:46:02;0;0;
54553;PMS5003;40450;55.848;-3.572;2023-11-22T08:48:27;0;0;
54553;PMS5003;40450;55.848;-3.572;2023-11-22T08:50:53;0;0;
54553;PMS5003;40450;55.848;-3.572;2023-11-22T08:53:18;0;0;
54553;PMS5003;40450;55.848;-3.572;2023-11-22T08:55:43;0;0;
54553;PMS5003;40450;55.848;-3.572;2023-11-22T08:58:09;0;0;
54553;PMS5003;40450;55.848;-3.572;2023-11-22T09:00:33;0;0;
54553;PMS5003;40450;55.848;-3.572;2023-11-22T09:02:58;0;0;
54553;PMS5003;40450;55.848;-3.572;2023-11-22T09:05:24;0;0;
54553;PMS5003;40450;55.848;-3.572;2023-11-22T09:07:49;0;0;
54553;PMS5003;40450;55.848;-3.572;2023-11-22T09:10:14;0;0;
54553;PMS5003;40450;55.848;-3.572;2023-11-22T09:12:39;0;0;
54553;PMS5003;40450;55.848;-3.572;2023-11-22T09:15:04;0;0;
54553;PMS5003;40450;55.848;-3.572;2023-11-22T09:17:29;0;0;
54553;PMS5003;40450;55.848;-3.572;2023-11-22T09:19:54;0;0;
54553;PMS5003;40450;55.848;-3.572;2023-11-22T09:22:19;0;0;
54553;PMS5003;40450;55.848;-3.572;2023-11-22T09:24:45;0;0;
54553;PMS5003;40450;55.848;-3.572;2023-11-22T09:27:10;0;0;
54553;PMS5003;40450;55.848;-3.572;2023-11-22T09:29:35;0;0;
54553;PMS5003;40450;55.848;-3.572;2023-11-22T09:32:00;0;0;
54553;PMS5003;40450;55.848;-3.572;2023-11-22T09:34:26;0;0;
54553;PMS5003;40450;55.848;-3.572;2023-11-22T09:36:50;0;0;
54553;PMS5003;40450;55.848;-3.572;2023-11-22T09:39:15;0;0;
54553;PMS5003;40450;55.848;-3.572;2023-11-22T09:41:41;0;0;
54553;PMS5003;40450;55.848;-3.572;2023-11-22T09:44:06;0;0;
54553;PMS5003;40450;55.848;-3.572;2023-11-22T09:46:31;0;0;
54553;PMS5003;40450;55.848;-3.572;2023-11-22T09:48:56;0;0;
54553;PMS5003;40450;55.848;-3.572;2023-11-22T09:51:23;0;0;
54553;PMS5003;40450;55.848;-3.572;2023-11-22T09:53:52;1;0;
54553;PMS5003;40450;55.848;-3.572;2023-11-22T09:56:12;0;0;
54553;PMS5003;40450;55.848;-3.572;2023-11-22T09:58:38;1;0;
54553;PMS5003;40450;55.848;-3.572;2023-11-22T10:01:02;0;0;
54553;PMS5003;40450;55.848;-3.572;2023-11-22T10:03:27;0;0;
54553;PMS5003;40450;55.848;-3.572;2023-11-22T10:05:52;0;0;
54553;PMS5003;40450;55.848;-3.572;2023-11-22T10:08:17;1;1;
54553;PMS5003;40450;55.848;-3.572;2023-11-22T10:10:43;0;0;
54553;PMS5003;40450;55.848;-3.572;2023-11-22T10:13:08;0;0;
54553;PMS5003;40450;55.848;-3.572;2023-11-22T10:15:33;0;0;
54553;PMS5003;40450;55.848;-3.572;2023-11-22T10:17:58;0;0;
54553;PMS5003;40450;55.848;-3.572;2023-11-22T10:20:24;0;0;
54553;PMS5003;40450;55.848;-3.572;2023-11-22T10:22:48;0;0;
54553;PMS5003;40450;55.848;-3.572;2023-11-22T10:25:14;0;0;
54553;PMS5003;40450;55.848;-3.572;2023-11-22T10:27:38;0;0;
54553;PMS5003;40450;55.848;-3.572;2023-11-22T10:30:04;0;0;
54553;PMS5003;40450;55.848;-3.572;2023-11-22T10:32:29;0;0;
54553;PMS5003;40450;55.848;-3.572;2023-11-22T10:34:54;0;0;
54553;PMS5003;40450;55.848;-3.572;2023-11-22T10:37:19;0;0;
54553;PMS5003;40450;55.848;-3.572;2023-11-22T10:39:46;0;0;
54553;PMS5003;40450;55.848;-3.572;2023-11-22T10:42:09;0;0;
54553;PMS5003;40450;55.848;-3.572;2023-11-22T10:44:35;0;0;
54553;PMS5003;40450;55.848;-3.572;2023-11-22T10:47:00;0;0;
54553;PMS5003;40450;55.848;-3.572;2023-11-22T10:49:25;0;0;
54553;PMS5003;40450;55.848;-3.572;2023-11-22T10:51:51;0;0;
54553;PMS5003;40450;55.848;-3.572;2023-11-22T10:54:15;0;0;
54553;PMS5003;40450;55.848;-3.572;2023-11-22T10:56:40;0;0;
54553;PMS5003;40450;55.848;-3.572;2023-11-22T10:59:05;0;0;
54553;PMS5003;40450;55.848;-3.572;2023-11-22T11:01:30;0;0;
54553;PMS5003;40450;55.848;-3.572;2023-11-22T11:03:57;0;0;
54553;PMS5003;40450;55.848;-3.572;2023-11-22T11:06:26;0;0;
54553;PMS5003;40450;55.848;-3.572;2023-11-22T11:08:46;0;0;
54553;PMS5003;40450;55.848;-3.572;2023-11-22T11:11:11;0;0;
54553;PMS5003;40450;55.848;-3.572;2023-11-22T11:13:36;0;0;
54553;PMS5003;40450;55.848;-3.572;2023-11-22T11:16:07;0;0;
54553;PMS5003;40450;55.848;-3.572;2023-11-22T11:18:31;0;0;
54553;PMS5003;40450;55.848;-3.572;2023-11-22T11:20:52;0;0;
54553;PMS5003;40450;55.848;-3.572;2023-11-22T11:23:25;0;0;
54553;PMS5003;40450;55.848;-3.572;2023-11-22T11:25:43;0;0;
54553;PMS5003;40450;55.848;-3.572;2023-11-22T11:28:12;0;0;
54553;PMS5003;40450;55.848;-3.572;2023-11-22T11:30:42;0;0;
54553;PMS5003;40450;55.848;-3.572;2023-11-22T11:32:57;0;0;
54553;PMS5003;40450;55.848;-3.572;2023-11-22T11:37:50;0;0;
54553;PMS5003;40450;55.848;-3.572;2023-11-22T11:42:43;0;0;
54553;PMS5003;40450;55.848;-3.572;2023-11-22T11:45:11;0;0;
54553;PMS5003;40450;55.848;-3.572;2023-11-22T11:47:33;0;0;
54553;PMS5003;40450;55.848;-3.572;2023-11-22T11:49:58;0;0;
54553;PMS5003;40450;55.848;-3.572;2023-11-22T11:52:32;0;0;
54553;PMS5003;40450;55.848;-3.572;2023-11-22T11:54:50;1;0;
54553;PMS5003;40450;55.848;-3.572;2023-11-22T11:57:14;1;1;
54553;PMS5003;40450;55.848;-3.572;2023-11-22T11:59:42;0;0;
54553;PMS5003;40450;55.848;-3.572;2023-11-22T12:02:05;0;0;
54553;PMS5003;40450;55.848;-3.572;2023-11-22T12:04:24;0;0;
54553;PMS5003;40450;55.848;-3.572;2023-11-22T12:07:13;0;0;
54553;PMS5003;40450;55.848;-3.572;2023-11-22T12:09:14;0;0;
54553;PMS5003;40450;55.848;-3.572;2023-11-22T12:11:39;0;0;
54553;PMS5003;40450;55.848;-3.572;2023-11-22T12:14:05;0;0;
54553;PMS5003;40450;55.848;-3.572;2023-11-22T12:16:30;1;0;
54553;PMS5003;40450;55.848;-3.572;2023-11-22T12:19:03;0;0;
54553;PMS5003;40450;55.848;-3.572;2023-11-22T12:21:20;0;0;
54553;PMS5003;40450;55.848;-3.572;2023-11-22T12:23:50;0;0;
54553;PMS5003;40450;55.848;-3.572;2023-11-22T12:26:11;0;0;
54553;PMS5003;40450;55.848;-3.572;2023-11-22T12:28:36;0;0;
54553;PMS5003;40450;55.848;-3.572;2023-11-22T12:33:26;0;0;
54553;PMS5003;40450;55.848;-3.572;2023-11-22T12:35:51;1;0;
54553;PMS5003;40450;55.848;-3.572;2023-11-22T12:38:16;0;0;
54553;PMS5003;40450;55.848;-3.572;2023-11-22T12:40:45;1;0;
54553;PMS5003;40450;55.848;-3.572;2023-11-22T12:43:06;0;0;
54553;PMS5003;40450;55.848;-3.572;2023-11-22T12:45:31;0;0;
54553;PMS5003;40450;55.848;-3.572;2023-11-22T12:47:57;0;0;
54553;PMS5003;40450;55.848;-3.572;2023-11-22T12:50:30;0;0;
54553;PMS5003;40450;55.848;-3.572;2023-11-22T12:52:47;0;0;
54553;PMS5003;40450;55.848;-3.572;2023-11-22T12:55:12;0;0;
54553;PMS5003;40450;55.848;-3.572;2023-11-22T12:57:37;0;0;
54553;PMS5003;40450;55.848;-3.572;2023-11-22T13:00:02;0;0;
54553;PMS5003;40450;55.848;-3.572;2023-11-22T13:02:28;0;0;
54553;PMS5003;40450;55.848;-3.572;2023-11-22T13:04:53;0;0;
54553;PMS5003;40450;55.848;-3.572;2023-11-22T13:07:18;1;0;
54553;PMS5003;40450;55.848;-3.572;2023-11-22T13:09:43;0;0;
54553;PMS5003;40450;55.848;-3.572;2023-11-22T13:12:08;0;0;
54553;PMS5003;40450;55.848;-3.572;2023-11-22T13:14:34;0;0;
54553;PMS5003;40450;55.848;-3.572;2023-11-22T13:17:03;0;0;
54553;PMS5003;40450;55.848;-3.572;2023-11-22T13:19:28;0;0;
54553;PMS5003;40450;55.848;-3.572;2023-11-22T13:22:00;0;0;
54553;PMS5003;40450;55.848;-3.572;2023-11-22T13:24:14;0;0;
54553;PMS5003;40450;55.848;-3.572;2023-11-22T13:26:39;0;0;
54553;PMS5003;40450;55.848;-3.572;2023-11-22T13:29:04;0;0;
54553;PMS5003;40450;55.848;-3.572;2023-11-22T13:31:29;0;0;
54553;PMS5003;40450;55.848;-3.572;2023-11-22T13:33:54;0;0;
54553;PMS5003;40450;55.848;-3.572;2023-11-22T13:36:19;0;0;
54553;PMS5003;40450;55.848;-3.572;2023-11-22T13:38:45;0;0;
54553;PMS5003;40450;55.848;-3.572;2023-11-22T13:41:15;0;0;
54553;PMS5003;40450;55.848;-3.572;2023-11-22T13:43:35;0;0;
54553;PMS5003;40450;55.848;-3.572;2023-11-22T13:46:05;2;2;
54553;PMS5003;40450;55.848;-3.572;2023-11-22T13:48:33;0;0;
54553;PMS5003;40450;55.848;-3.572;2023-11-22T13:50:58;0;0;
54553;PMS5003;40450;55.848;-3.572;2023-11-22T13:53:21;1;0;
54553;PMS5003;40450;55.848;-3.572;2023-11-22T13:55:48;0;0;
54553;PMS5003;40450;55.848;-3.572;2023-11-22T13:58:14;0;0;
54553;PMS5003;40450;55.848;-3.572;2023-11-22T14:00:36;2;0;
54553;PMS5003;40450;55.848;-3.572;2023-11-22T14:03:02;1;0;
54553;PMS5003;40450;55.848;-3.572;2023-11-22T14:05:26;0;0;
54553;PMS5003;40450;55.848;-3.572;2023-11-22T14:07:51;0;0;
54553;PMS5003;40450;55.848;-3.572;2023-11-22T14:10:33;0;0;
54553;PMS5003;40450;55.848;-3.572;2023-11-22T14:12:37;0;0;
54553;PMS5003;40450;55.848;-3.572;2023-11-22T14:15:07;0;0;
54553;PMS5003;40450;55.848;-3.572;2023-11-22T14:19:57;0;0;
54553;PMS5003;40450;55.848;-3.572;2023-11-22T14:22:22;0;0;
54553;PMS5003;40450;55.848;-3.572;2023-11-22T14:24:42;0;0;
54553;PMS5003;40450;55.848;-3.572;2023-11-22T14:27:22;0;0;
54553;PMS5003;40450;55.848;-3.572;2023-11-22T14:29:38;0;0;
54553;PMS5003;40450;55.848;-3.572;2023-11-22T14:32:03;2;1;
54553;PMS5003;40450;55.848;-3.572;2023-11-22T14:34:54;0;0;
54553;PMS5003;40450;55.848;-3.572;2023-11-22T14:36:48;0;0;
54553;PMS5003;40450;55.848;-3.572;2023-11-22T14:39:13;0;0;
54553;PMS5003;40450;55.848;-3.572;2023-11-22T14:41:51;0;0;
54553;PMS5003;40450;55.848;-3.572;2023-11-22T14:44:14;0;0;
54553;PMS5003;40450;55.848;-3.572;2023-11-22T14:46:28;1;1;
54553;PMS5003;40450;55.848;-3.572;2023-11-22T14:48:59;0;0;
54553;PMS5003;40450;55.848;-3.572;2023-11-22T14:51:24;0;0;
54553;PMS5003;40450;55.848;-3.572;2023-11-22T14:53:44;0;0;
54553;PMS5003;40450;55.848;-3.572;2023-11-22T14:56:15;0;0;
54553;PMS5003;40450;55.848;-3.572;2023-11-22T14:58:39;0;0;
54553;PMS5003;40450;55.848;-3.572;2023-11-22T15:00:59;0;0;
54553;PMS5003;40450;55.848;-3.572;2023-11-22T15:03:30;0;0;
54553;PMS5003;40450;55.848;-3.572;2023-11-22T15:06:13;2;1;
54553;PMS5003;40450;55.848;-3.572;2023-11-22T15:08:20;1;1;
54553;PMS5003;40450;55.848;-3.572;2023-11-22T15:10:47;2;2;
54553;PMS5003;40450;55.848;-3.572;2023-11-22T15:13:10;1;1;
54553;PMS5003;40450;55.848;-3.572;2023-11-22T15:15:31;0;0;
54553;PMS5003;40450;55.848;-3.572;2023-11-22T15:18:01;0;0;
54553;PMS5003;40450;55.848;-3.572;2023-11-22T15:20:22;0;0;
54553;PMS5003;40450;55.848;-3.572;2023-11-22T15:22:52;0;0;
54553;PMS5003;40450;55.848;-3.572;2023-11-22T15:25:17;0;0;
54553;PMS5003;40450;55.848;-3.572;2023-11-22T15:27:45;0;0;
54553;PMS5003;40450;55.848;-3.572;2023-11-22T15:30:07;0;0;
54553;PMS5003;40450;55.848;-3.572;2023-11-22T15:32:32;0;0;
54553;PMS5003;40450;55.848;-3.572;2023-11-22T15:34:59;0;0;
54553;PMS5003;40450;55.848;-3.572;2023-11-22T15:37:30;1;0;
54553;PMS5003;40450;55.848;-3.572;2023-11-22T15:39:43;0;0;
54553;PMS5003;40450;55.848;-3.572;2023-11-22T15:42:08;0;0;
54553;PMS5003;40450;55.848;-3.572;2023-11-22T15:44:33;0;0;
54553;PMS5003;40450;55.848;-3.572;2023-11-22T15:46:58;0;0;
54553;PMS5003;40450;55.848;-3.572;2023-11-22T15:49:28;0;0;
54553;PMS5003;40450;55.848;-3.572;2023-11-22T15:51:49;1;0;
54553;PMS5003;40450;55.848;-3.572;2023-11-22T15:54:23;3;1;
54553;PMS5003;40450;55.848;-3.572;2023-11-22T15:56:40;0;0;
54553;PMS5003;40450;55.848;-3.572;2023-11-22T15:59:05;0;0;
54553;PMS5003;40450;55.848;-3.572;2023-11-22T16:01:38;0;0;
54553;PMS5003;40450;55.848;-3.572;2023-11-22T16:04:00;0;0;
54553;PMS5003;40450;55.848;-3.572;2023-11-22T16:06:20;0;0;
54553;PMS5003;40450;55.848;-3.572;2023-11-22T16:08:45;0;0;
54553;PMS5003;40450;55.848;-3.572;2023-11-22T16:11:15;2;1;
54553;PMS5003;40450;55.848;-3.572;2023-11-22T16:13:41;2;0;
54553;PMS5003;40450;55.848;-3.572;2023-11-22T16:16:09;2;0;
54553;PMS5003;40450;55.848;-3.572;2023-11-22T16:18:31;0;0;
54553;PMS5003;40450;55.848;-3.572;2023-11-22T16:20:56;0;0;
54553;PMS5003;40450;55.848;-3.572;2023-11-22T16:23:30;0;0;
54553;PMS5003;40450;55.848;-3.572;2023-11-22T16:25:46;1;1;
54553;PMS5003;40450;55.848;-3.572;2023-11-22T16:28:12;0;0;